createdAt,value
2023-02-11T00:00:41.562Z,52.53
2023-02-11T00:03:46.337Z,51.97
2023-02-11T00:06:51.108Z,48.90
2023-02-11T00:09:55.911Z,43.50
2023-02-11T00:13:00.561Z,50.58
2023-02-11T00:16:10.635Z,47.33
2023-02-11T00:19:15.407Z,47.33
2023-02-11T00:22:20.526Z,45.08
2023-02-11T00:25:25.735Z,49.95
2023-02-11T00:28:30.423Z,44.15
2023-02-11T00:31:35.724Z,51.15
2023-02-11T00:34:43.129Z,42.50
2023-02-11T00:37:47.850Z,43.10
2023-02-11T00:40:52.659Z,53.42
2023-02-11T00:43:57.530Z,40.30
2023-02-11T00:47:02.186Z,43.08
2023-02-11T00:50:07.586Z,47.33
2023-02-11T00:53:12.472Z,48.38
2023-02-11T00:56:17.915Z,42.20
2023-02-11T00:59:22.800Z,47.95
2023-02-11T01:02:27.410Z,48.20
2023-02-11T01:05:32.219Z,50.70
2023-02-11T01:08:37.323Z,44.75
2023-02-11T01:11:41.826Z,39.67
2023-02-11T01:14:46.672Z,50.70
2023-02-11T01:17:51.606Z,42.53
2023-02-11T01:20:58.010Z,45.95
2023-02-11T01:24:02.713Z,45.35
2023-02-11T01:27:07.570Z,48.42
2023-02-11T01:30:13.894Z,41.92
2023-02-11T01:33:19.058Z,44.00
2023-02-11T01:36:23.957Z,47.80
2023-02-11T01:39:28.613Z,42.47
2023-02-11T01:42:33.866Z,45.47
2023-02-11T01:45:44.800Z,44.45
2023-02-11T01:49:06.279Z,48.20
2023-02-11T01:52:19.055Z,44.05
2023-02-11T01:55:42.175Z,47.08
2023-02-11T01:58:48.773Z,47.83
2023-02-11T02:01:58.736Z,48.85
2023-02-11T02:05:36.890Z,49.08
2023-02-11T02:08:51.246Z,39.90
2023-02-11T02:11:56.029Z,50.88
2023-02-11T02:15:22.007Z,40.50
2023-02-11T02:18:38.995Z,44.85
2023-02-11T02:22:17.618Z,38.83
2023-02-11T02:25:48.164Z,53.33
2023-02-11T02:29:06.917Z,43.45
2023-02-11T02:32:43.559Z,45.80
2023-02-11T02:35:58.324Z,46.15
2023-02-11T02:39:12.015Z,44.55
2023-02-11T02:42:18.375Z,47.72
2023-02-11T02:45:23.003Z,52.88
2023-02-11T02:48:30.952Z,51.10
2023-02-11T02:51:38.423Z,51.85
2023-02-11T02:55:11.481Z,53.40
2023-02-11T02:58:47.023Z,48.85
2023-02-11T03:02:03.962Z,56.03
2023-02-11T03:05:16.170Z,51.47
2023-02-11T03:08:41.120Z,46.90
2023-02-11T03:11:45.978Z,57.08
2023-02-11T03:14:52.386Z,46.53
2023-02-11T03:18:02.120Z,56.03
2023-02-11T03:21:08.479Z,44.90
2023-02-11T03:24:20.117Z,51.67
2023-02-11T03:27:32.934Z,45.88
2023-02-11T03:33:59.616Z,50.92
2023-02-11T03:37:18.345Z,48.67
2023-02-11T03:40:26.922Z,45.22
2023-02-11T03:43:35.598Z,50.10
2023-02-11T03:46:44.878Z,44.58
2023-02-11T03:49:53.093Z,48.30
2023-02-11T03:53:00.560Z,53.38
2023-02-11T03:56:09.037Z,48.63
2023-02-11T03:59:13.710Z,47.78
2023-02-11T04:02:19.088Z,46.92
2023-02-11T04:05:23.976Z,47.10
2023-02-11T04:08:28.606Z,46.03
2023-02-11T04:11:33.213Z,49.90
2023-02-11T04:14:38.084Z,44.90
2023-02-11T04:17:43.030Z,40.17
2023-02-11T04:20:48.156Z,45.22
2023-02-11T04:23:52.794Z,48.30
2023-02-11T04:26:57.594Z,50.22
2023-02-11T04:30:02.589Z,56.00
2023-02-11T04:33:07.318Z,53.05
2023-02-11T04:36:12.873Z,45.08
2023-02-11T04:39:17.949Z,47.55
2023-02-11T04:42:24.023Z,48.13
2023-02-11T04:45:28.701Z,54.47
2023-02-11T04:48:34.913Z,49.78
2023-02-11T04:51:39.719Z,56.47
2023-02-11T04:54:44.470Z,50.38
2023-02-11T04:57:49.211Z,49.97
2023-02-11T05:00:54.074Z,54.45
2023-02-11T05:03:58.790Z,50.08
2023-02-11T05:07:03.601Z,45.70
2023-02-11T05:10:08.450Z,49.50
2023-02-11T05:13:13.176Z,46.97
2023-02-11T05:16:18.569Z,42.78
2023-02-11T05:19:23.415Z,55.53
2023-02-11T05:22:28.032Z,49.38
2023-02-11T05:25:33.148Z,44.85
2023-02-11T05:28:38.133Z,44.60
2023-02-11T05:31:42.804Z,42.72
2023-02-11T05:34:47.439Z,42.72
2023-02-11T05:37:52.149Z,43.80
2023-02-11T05:40:57.105Z,49.13
2023-02-11T05:44:01.842Z,44.08
2023-02-11T05:47:08.932Z,46.60
2023-02-11T05:50:13.418Z,44.55
2023-02-11T05:53:21.571Z,45.03
2023-02-11T05:56:49.165Z,48.75
2023-02-11T05:59:53.769Z,46.92
2023-02-11T06:02:58.427Z,57.60
2023-02-11T06:06:03.262Z,47.55
2023-02-11T06:09:09.033Z,49.05
2023-02-11T06:12:13.772Z,48.88
2023-02-11T06:15:18.463Z,48.80
2023-02-11T06:18:23.329Z,45.35
2023-02-11T06:21:42.436Z,53.13
2023-02-11T06:25:00.967Z,51.58
2023-02-11T06:28:06.805Z,50.85
2023-02-11T06:31:11.908Z,44.97
2023-02-11T06:34:16.766Z,50.25
2023-02-11T06:37:22.240Z,46.60
2023-02-11T06:40:27.298Z,45.92
2023-02-11T06:43:33.516Z,52.38
2023-02-11T06:46:41.282Z,45.85
2023-02-11T06:49:45.978Z,45.50
2023-02-11T06:52:50.547Z,35.45
2023-02-11T06:55:55.186Z,41.30
2023-02-11T06:59:00.423Z,35.05
2023-02-11T07:02:05.060Z,40.60
2023-02-11T07:05:09.947Z,42.33
2023-02-11T07:08:14.615Z,46.97
2023-02-11T07:11:24.217Z,38.15
2023-02-11T07:14:28.899Z,45.35
2023-02-11T07:17:34.930Z,47.40
2023-02-11T07:20:39.437Z,48.50
2023-02-11T07:23:43.971Z,49.55
2023-02-11T07:26:48.827Z,51.33
2023-02-11T07:29:53.653Z,50.58
2023-02-11T07:32:58.198Z,48.92
2023-02-11T07:36:04.897Z,51.80
2023-02-11T07:39:09.538Z,55.03
2023-02-11T07:42:14.270Z,53.03
2023-02-11T07:45:19.364Z,45.05
2023-02-11T07:48:24.636Z,47.90
2023-02-11T07:51:30.857Z,52.47
2023-02-11T07:54:35.678Z,58.13
2023-02-11T07:57:41.232Z,50.50
2023-02-11T08:00:46.220Z,47.53
2023-02-11T08:03:52.197Z,45.95
2023-02-11T08:06:59.071Z,48.90
2023-02-11T08:10:04.076Z,45.75
2023-02-11T08:13:08.571Z,58.85
2023-02-11T08:16:28.258Z,62.03
2023-02-11T08:19:35.175Z,58.03
2023-02-11T08:22:39.879Z,49.25
2023-02-11T08:25:44.449Z,37.95
2023-02-11T08:28:50.728Z,47.00
2023-02-11T08:31:55.257Z,49.75
2023-02-11T08:34:59.810Z,52.00
2023-02-11T08:38:04.335Z,53.72
2023-02-11T08:41:09.098Z,52.42
2023-02-11T08:44:13.794Z,61.47
2023-02-11T08:47:18.350Z,49.45
2023-02-11T08:50:22.978Z,51.53
2023-02-11T08:53:27.502Z,50.58
2023-02-11T08:56:33.252Z,44.03
2023-02-11T08:59:39.997Z,57.22
2023-02-11T09:02:44.575Z,54.10
2023-02-11T09:05:53.223Z,63.92
2023-02-11T09:08:58.578Z,60.03
2023-02-11T09:12:03.258Z,64.50
2023-02-11T09:15:08.514Z,58.28
2023-02-11T09:18:13.431Z,54.90
2023-02-11T09:21:19.125Z,58.40
2023-02-11T09:24:23.696Z,55.05
2023-02-11T09:27:28.282Z,57.25
2023-02-11T09:30:33.376Z,53.38
2023-02-11T09:33:39.326Z,53.22
2023-02-11T09:36:44.008Z,60.35
2023-02-11T09:39:48.642Z,54.45
2023-02-11T09:43:14.322Z,59.75
2023-02-11T09:46:21.210Z,54.13
2023-02-11T09:49:35.066Z,64.70
2023-02-11T09:52:54.945Z,61.63
2023-02-11T09:56:02.263Z,60.80
2023-02-11T09:59:13.739Z,54.50
2023-02-11T10:02:29.870Z,53.30
2023-02-11T10:05:46.513Z,49.53
2023-02-11T10:08:54.290Z,56.35
2023-02-11T10:11:59.157Z,56.28
2023-02-11T10:15:15.623Z,54.05
2023-02-11T10:18:38.302Z,56.05
2023-02-11T10:22:00.214Z,50.70
2023-02-11T10:25:30.610Z,51.85
2023-02-11T10:28:37.052Z,56.90
2023-02-11T10:31:45.040Z,51.05
2023-02-11T10:34:50.597Z,52.92
2023-02-11T10:37:56.093Z,46.40
2023-02-11T10:41:00.833Z,47.80
2023-02-11T10:44:07.401Z,46.38
2023-02-11T10:47:21.132Z,53.45
2023-02-11T10:50:28.613Z,47.35
2023-02-11T10:53:34.955Z,45.83
2023-02-11T10:56:47.560Z,53.10
2023-02-11T10:59:58.294Z,50.25
2023-02-11T11:03:14.623Z,48.90
2023-02-11T11:06:31.615Z,49.05
2023-02-11T11:09:48.458Z,43.53
2023-02-11T11:12:53.093Z,45.90
2023-02-11T11:16:18.249Z,43.40
2023-02-11T11:19:26.020Z,47.80
2023-02-11T11:22:30.914Z,47.47
2023-02-11T11:25:39.534Z,49.58
2023-02-11T11:28:47.000Z,43.55
2023-02-11T11:31:56.840Z,43.83
2023-02-11T11:35:07.529Z,40.45
2023-02-11T11:38:14.865Z,46.80
2023-02-11T11:41:26.128Z,53.33
2023-02-11T11:44:33.725Z,44.28
2023-02-11T11:48:16.250Z,44.22
2023-02-11T11:51:21.610Z,45.78
2023-02-11T11:54:28.214Z,47.55
2023-02-11T11:57:37.274Z,44.33
2023-02-11T12:01:17.054Z,47.40
2023-02-11T12:04:30.169Z,44.60
2023-02-11T12:11:09.311Z,44.58
2023-02-11T12:14:22.805Z,46.88
2023-02-11T12:17:47.539Z,42.10
2023-02-11T12:21:01.025Z,45.35
2023-02-11T12:24:43.217Z,43.70
2023-02-11T12:27:54.998Z,40.58
2023-02-11T12:31:30.354Z,44.85
2023-02-11T12:34:35.586Z,39.80
2023-02-11T12:37:45.848Z,47.83
2023-02-11T12:40:56.423Z,38.45
2023-02-11T12:44:01.074Z,39.05
2023-02-11T12:47:27.091Z,35.60
2023-02-11T12:50:40.629Z,41.28
2023-02-11T12:54:19.571Z,41.42
2023-02-11T12:57:31.116Z,41.92
2023-02-11T13:00:51.818Z,42.20
2023-02-11T13:04:14.180Z,39.60
2023-02-11T13:07:28.761Z,37.03
2023-02-11T13:10:36.660Z,34.83
2023-02-11T13:14:05.978Z,43.35
2023-02-11T13:17:44.387Z,42.65
2023-02-11T13:21:02.522Z,46.90
2023-02-11T13:24:30.341Z,41.72
2023-02-11T13:27:44.206Z,39.08
2023-02-11T13:30:57.353Z,43.30
2023-02-11T13:34:03.814Z,43.42
2023-02-11T13:37:38.822Z,45.92
2023-02-11T13:40:44.320Z,46.28
2023-02-11T13:44:23.779Z,42.10
2023-02-11T13:47:33.835Z,43.80
2023-02-11T13:50:46.618Z,42.88
2023-02-11T13:53:57.142Z,44.22
2023-02-11T13:57:19.762Z,43.47
2023-02-11T14:00:36.516Z,42.90
2023-02-11T14:04:38.327Z,38.97
2023-02-11T14:08:30.583Z,37.53
2023-02-11T14:11:36.477Z,35.88
2023-02-11T14:15:04.812Z,39.08
2023-02-11T14:18:44.791Z,37.28
2023-02-11T14:21:50.039Z,44.03
2023-02-11T14:24:58.365Z,41.97
2023-02-11T14:28:24.105Z,47.85
2023-02-11T14:31:45.528Z,47.67
2023-02-11T14:34:55.945Z,46.88
2023-02-11T14:38:41.456Z,45.78
2023-02-11T14:41:48.782Z,38.58
2023-02-11T14:44:57.529Z,40.42
2023-02-11T14:48:13.442Z,40.58
2023-02-11T14:51:31.697Z,34.53
2023-02-11T14:54:36.538Z,37.60
2023-02-11T14:57:44.660Z,34.80
2023-02-11T15:01:01.283Z,33.33
2023-02-11T15:04:22.474Z,34.47
2023-02-11T15:07:27.868Z,33.25
2023-02-11T15:10:37.921Z,33.80
2023-02-11T15:13:50.549Z,36.85
2023-02-11T15:16:59.502Z,33.55
2023-02-11T15:20:05.560Z,35.17
2023-02-11T15:23:21.474Z,36.10
2023-02-11T15:26:26.941Z,38.88
2023-02-11T15:29:39.285Z,35.88
2023-02-11T15:32:45.586Z,34.72
2023-02-11T15:35:52.889Z,37.15
2023-02-11T15:39:18.450Z,33.72
2023-02-11T15:42:26.492Z,39.40
2023-02-11T15:45:34.727Z,31.20
2023-02-11T15:48:48.670Z,36.40
2023-02-11T15:51:57.090Z,37.50
2023-02-11T15:55:03.069Z,39.42
2023-02-11T15:58:10.803Z,37.38
2023-02-11T16:01:16.500Z,36.42
2023-02-11T16:04:25.077Z,33.95
2023-02-11T16:07:47.468Z,36.88
2023-02-11T16:11:03.681Z,39.28
2023-02-11T16:14:31.313Z,37.00
2023-02-11T16:17:35.960Z,33.88
2023-02-11T16:20:40.981Z,35.05
2023-02-11T16:23:58.124Z,38.20
2023-02-11T16:27:07.143Z,36.60
2023-02-11T16:30:28.146Z,36.47
2023-02-11T16:33:33.398Z,44.58
2023-02-11T16:36:38.517Z,35.40
2023-02-11T16:39:44.682Z,43.35
2023-02-11T16:42:49.840Z,41.30
2023-02-11T16:45:58.854Z,41.17
2023-02-11T16:49:10.746Z,42.17
2023-02-11T16:52:16.682Z,47.92
2023-02-11T16:55:22.301Z,41.25
2023-02-11T16:58:26.994Z,43.42
2023-02-11T17:01:32.537Z,43.00
2023-02-11T17:04:37.640Z,42.58
2023-02-11T17:07:42.311Z,41.53
2023-02-11T17:10:47.244Z,46.47
2023-02-11T17:13:51.952Z,40.67
2023-02-11T17:16:56.852Z,46.30
2023-02-11T17:20:01.662Z,42.40
2023-02-11T17:23:06.358Z,39.83
2023-02-11T17:26:10.926Z,45.63
2023-02-11T17:29:18.953Z,38.58
2023-02-11T17:32:23.532Z,44.50
2023-02-11T17:35:28.122Z,41.55
2023-02-11T17:38:33.446Z,35.25
2023-02-11T17:41:39.442Z,37.97
2023-02-11T17:44:44.438Z,40.15
2023-02-11T17:47:49.451Z,46.72
2023-02-11T17:50:54.029Z,46.90
2023-02-11T17:54:01.205Z,43.72
2023-02-11T17:57:06.024Z,42.58
2023-02-11T18:00:11.300Z,43.40
2023-02-11T18:03:18.473Z,47.92
2023-02-11T18:06:23.055Z,42.42
2023-02-11T18:09:27.880Z,43.38
2023-02-11T18:12:32.375Z,42.28
2023-02-11T18:15:36.966Z,39.60
2023-02-11T18:18:42.525Z,46.53
2023-02-11T18:21:50.475Z,42.22
2023-02-11T18:24:55.426Z,42.55
2023-02-11T18:28:00.128Z,36.50
2023-02-11T18:31:06.095Z,39.33
2023-02-11T18:34:11.431Z,44.33
2023-02-11T18:37:16.325Z,40.72
2023-02-11T18:40:20.917Z,40.95
2023-02-11T18:43:25.560Z,35.75
2023-02-11T18:46:30.587Z,36.03
2023-02-11T18:49:36.157Z,43.20
2023-02-11T18:52:40.830Z,35.35
2023-02-11T18:55:47.009Z,40.22
2023-02-11T18:58:51.982Z,38.28
2023-02-11T19:01:56.688Z,42.40
2023-02-11T19:05:01.494Z,35.17
2023-02-11T19:08:06.266Z,40.17
2023-02-11T19:11:11.166Z,44.28
2023-02-11T19:14:24.483Z,38.33
2023-02-11T19:17:28.951Z,46.22
2023-02-11T19:20:33.519Z,40.40
2023-02-11T19:23:38.673Z,43.42
2023-02-11T19:26:43.267Z,40.10
2023-02-11T19:29:47.835Z,49.05
2023-02-11T19:32:53.190Z,45.95
2023-02-11T19:36:09.603Z,50.70
2023-02-11T19:39:14.437Z,55.55
2023-02-11T19:42:18.981Z,56.05
2023-02-11T19:45:23.689Z,54.90
2023-02-11T19:48:28.371Z,47.65
2023-02-11T19:51:35.573Z,46.95
2023-02-11T19:54:40.139Z,51.58
2023-02-11T19:57:45.015Z,47.90
2023-02-11T20:00:49.601Z,46.72
2023-02-11T20:03:55.340Z,49.42
2023-02-11T20:07:00.038Z,49.65
2023-02-11T20:10:05.277Z,43.20
2023-02-11T20:13:10.444Z,47.90
2023-02-11T20:16:21.150Z,46.58
2023-02-11T20:19:25.765Z,46.80
2023-02-11T20:22:30.254Z,46.03
2023-02-11T20:25:38.283Z,47.00
2023-02-11T20:28:43.248Z,52.50
2023-02-11T20:31:49.695Z,49.03
2023-02-11T20:34:54.442Z,43.25
2023-02-11T20:38:00.420Z,50.58
2023-02-11T20:41:13.886Z,44.30
2023-02-11T20:44:18.821Z,50.22
2023-02-11T20:47:23.507Z,48.85
2023-02-11T20:50:28.006Z,47.03
2023-02-11T20:53:35.476Z,45.88
2023-02-11T20:56:39.997Z,46.63
2023-02-11T20:59:44.607Z,47.08
2023-02-11T21:02:52.809Z,45.38
2023-02-11T21:06:00.746Z,43.33
2023-02-11T21:09:08.188Z,47.88
2023-02-11T21:12:13.070Z,49.45
2023-02-11T21:15:17.777Z,49.92
2023-02-11T21:18:23.426Z,44.42
2023-02-11T21:21:27.964Z,46.13
2023-02-11T21:24:32.782Z,44.58
2023-02-11T21:27:37.570Z,46.08
2023-02-11T21:30:42.421Z,47.38
2023-02-11T21:33:48.222Z,50.47
2023-02-11T21:36:52.819Z,49.22
2023-02-11T21:39:57.422Z,51.63
2023-02-11T21:43:01.930Z,47.50
2023-02-11T21:46:13.197Z,55.05
2023-02-11T21:49:19.882Z,47.17
2023-02-11T21:52:24.620Z,48.90
2023-02-11T21:55:29.141Z,46.03
2023-02-11T21:58:34.737Z,49.25
2023-02-11T22:01:39.745Z,48.42
2023-02-11T22:04:44.530Z,40.22
2023-02-11T22:07:49.146Z,41.78
2023-02-11T22:10:53.815Z,46.03
2023-02-11T22:13:59.318Z,54.22
2023-02-11T22:17:04.779Z,65.25
2023-02-11T22:20:10.432Z,50.15
2023-02-11T22:23:14.930Z,51.35
2023-02-11T22:26:22.292Z,45.25
2023-02-11T22:29:26.842Z,43.55
2023-02-11T22:32:31.667Z,49.00
2023-02-11T22:35:36.172Z,41.90
2023-02-11T22:38:40.751Z,40.60
2023-02-11T22:41:46.726Z,38.95
2023-02-11T22:44:51.337Z,38.47
2023-02-11T22:47:55.907Z,36.47
2023-02-11T22:51:08.781Z,44.33
2023-02-11T22:54:16.482Z,43.03
2023-02-11T22:57:21.052Z,44.53
2023-02-11T23:03:53.751Z,46.10
2023-02-11T23:06:58.380Z,46.78
2023-02-11T23:10:02.925Z,41.92
2023-02-11T23:13:07.745Z,47.90
2023-02-11T23:16:15.181Z,40.13
2023-02-11T23:19:19.907Z,46.13
2023-02-11T23:22:24.546Z,42.53
2023-02-11T23:25:29.716Z,44.85
2023-02-11T23:28:34.242Z,41.97
2023-02-11T23:31:40.645Z,48.08
2023-02-11T23:34:45.336Z,49.33
2023-02-11T23:37:50.427Z,47.10
2023-02-11T23:40:55.028Z,42.25
2023-02-11T23:43:59.648Z,44.70
2023-02-11T23:47:04.469Z,47.05
2023-02-11T23:50:10.284Z,53.38
2023-02-11T23:53:15.496Z,51.63
2023-02-11T23:56:25.770Z,44.15
2023-02-11T23:59:30.356Z,41.35
